Time;durP1;ratioP1;P1;durP2;ratioP2;P2;SDS_P1;SDS_P2;PMS_P1;PMS_P2;Temp;Humidity;BMP_temperature;BMP_pressure;BME280_temperature;BME280_humidity;BME280_pressure;Samples;Min_cycle;Max_cycle;Signal;HPM_P1;HPM_P2
2023/09/29 00:02:24;;;;;;;13.53;8.77;;;16.20;99.90;;;;;;5035617;28;20544;-75
2023/09/29 00:04:51;;;;;;;11.77;8.50;;;16.20;99.90;;;;;;5036768;28;20484;-75
2023/09/29 00:07:18;;;;;;;12.93;8.57;;;16.10;99.90;;;;;;5033358;28;20432;-75
2023/09/29 00:09:44;;;;;;;15.37;8.40;;;16.10;99.90;;;;;;5035758;28;20959;-75
2023/09/29 00:12:11;;;;;;;14.43;9.27;;;16.10;99.90;;;;;;5035843;28;20488;-75
2023/09/29 00:14:39;;;;;;;16.37;8.30;;;16.20;99.90;;;;;;5034503;28;20457;-75
2023/09/29 00:17:06;;;;;;;11.00;8.60;;;16.10;99.90;;;;;;5036374;28;20458;-75
2023/09/29 00:19:33;;;;;;;14.37;9.40;;;16.10;99.90;;;;;;5035424;28;20441;-75
2023/09/29 00:21:59;;;;;;;13.77;9.03;;;16.00;99.90;;;;;;5034196;28;20462;-75
2023/09/29 00:24:26;;;;;;;15.23;8.70;;;16.00;99.90;;;;;;5035091;28;20449;-75
2023/09/29 00:26:53;;;;;;;9.17;8.23;;;16.00;99.90;;;;;;5035490;28;20474;-75
2023/09/29 00:29:19;;;;;;;15.10;8.53;;;16.00;99.90;;;;;;5034020;28;20456;-75
2023/09/29 00:31:47;;;;;;;11.73;9.37;;;15.90;99.90;;;;;;5034452;28;20492;-75
2023/09/29 00:34:14;;;;;;;17.13;9.73;;;15.90;99.90;;;;;;5035158;28;20447;-75
2023/09/29 00:36:42;;;;;;;12.27;10.07;;;15.90;99.90;;;;;;5034531;28;20462;-75
2023/09/29 00:39:13;;;;;;;13.63;8.40;;;15.90;99.90;;;;;;5034886;28;20479;-75
2023/09/29 00:41:41;;;;;;;13.97;9.50;;;15.90;99.90;;;;;;5033988;28;20453;-75
2023/09/29 00:44:09;;;;;;;13.60;9.83;;;15.90;99.90;;;;;;5033345;28;20464;-75
2023/09/29 00:46:36;;;;;;;15.90;10.07;;;15.80;99.90;;;;;;5034073;28;20460;-75
2023/09/29 00:49:04;;;;;;;15.70;9.73;;;15.80;99.90;;;;;;5034873;28;20460;-75
2023/09/29 00:51:31;;;;;;;13.70;9.70;;;15.80;99.90;;;;;;5033499;28;20454;-75
2023/09/29 00:53:58;;;;;;;14.20;10.77;;;15.80;99.90;;;;;;5034550;28;20449;-75
2023/09/29 00:56:26;;;;;;;18.13;9.00;;;15.90;99.90;;;;;;5033775;28;20431;-75
2023/09/29 00:58:55;;;;;;;11.80;9.13;;;15.90;99.90;;;;;;5034194;28;20693;-75
2023/09/29 01:01:23;;;;;;;16.00;10.27;;;16.00;99.90;;;;;;5033342;28;20463;-75
2023/09/29 01:03:50;;;;;;;13.97;9.57;;;15.90;99.90;;;;;;5033620;28;20448;-75
2023/09/29 01:06:18;;;;;;;18.70;10.63;;;15.90;99.90;;;;;;5025240;28;20507;-75
2023/09/29 01:08:45;;;;;;;13.73;10.30;;;16.00;99.90;;;;;;5033214;28;20450;-75
2023/09/29 01:11:12;;;;;;;19.50;9.70;;;16.00;99.90;;;;;;5033171;28;20850;-75
2023/09/29 01:13:40;;;;;;;18.50;10.30;;;16.00;99.90;;;;;;5033125;28;20476;-75
2023/09/29 01:16:08;;;;;;;18.43;10.10;;;16.00;99.90;;;;;;5033085;28;20918;-75
2023/09/29 01:18:37;;;;;;;17.30;10.17;;;16.00;99.90;;;;;;5032397;28;20951;-75
2023/09/29 01:21:06;;;;;;;15.10;10.57;;;15.90;99.90;;;;;;5032149;28;20861;-75
2023/09/29 01:23:35;;;;;;;17.37;10.43;;;15.90;99.90;;;;;;5026945;28;20479;-75
2023/09/29 01:26:02;;;;;;;13.03;9.90;;;15.90;99.90;;;;;;5032827;28;20536;-75
2023/09/29 01:28:29;;;;;;;15.30;10.50;;;15.90;99.90;;;;;;5032422;28;20424;-76
2023/09/29 01:30:55;;;;;;;12.50;10.00;;;15.80;99.90;;;;;;5032367;28;20457;-76
2023/09/29 01:33:22;;;;;;;16.70;9.93;;;16.00;99.90;;;;;;5032075;28;20983;-76
2023/09/29 01:35:50;;;;;;;15.60;10.67;;;16.00;99.90;;;;;;5031776;28;20504;-75
2023/09/29 01:38:17;;;;;;;12.03;9.43;;;16.00;99.90;;;;;;5032416;28;20484;-76
2023/09/29 01:40:45;;;;;;;11.53;10.00;;;16.00;99.90;;;;;;5031701;28;20424;-75
2023/09/29 01:43:11;;;;;;;11.73;9.60;;;16.00;99.90;;;;;;5031544;28;20550;-76
2023/09/29 01:45:39;;;;;;;10.67;9.23;;;16.00;99.90;;;;;;5031631;28;20424;-75
2023/09/29 01:48:07;;;;;;;13.30;9.93;;;16.00;99.90;;;;;;5031143;28;20519;-76
2023/09/29 01:50:33;;;;;;;13.97;9.70;;;16.00;99.90;;;;;;5031633;28;20464;-75
2023/09/29 01:53:00;;;;;;;25.57;10.53;;;16.00;99.90;;;;;;5031229;28;20472;-75
2023/09/29 01:55:27;;;;;;;16.57;11.07;;;16.00;99.90;;;;;;5031290;28;20453;-75
2023/09/29 01:57:56;;;;;;;14.07;10.13;;;16.00;99.90;;;;;;5031569;28;20449;-75
2023/09/29 02:00:25;;;;;;;13.67;9.07;;;15.90;99.90;;;;;;5031576;28;20519;-76
2023/09/29 02:02:52;;;;;;;16.13;9.43;;;15.90;99.90;;;;;;5030413;28;20950;-76
2023/09/29 02:05:19;;;;;;;20.73;9.57;;;15.90;99.90;;;;;;5024306;28;20989;-75
2023/09/29 02:07:46;;;;;;;14.30;9.30;;;15.90;99.90;;;;;;5040124;28;20916;-75
2023/09/29 02:10:13;;;;;;;10.80;8.90;;;15.90;99.90;;;;;;5050951;28;20856;-75
2023/09/29 02:12:46;;;;;;;10.90;8.17;;;15.90;99.90;;;;;;5046913;28;20463;-76
2023/09/29 02:15:15;;;;;;;10.63;8.30;;;15.90;99.90;;;;;;5045634;28;20538;-76
2023/09/29 02:17:42;;;;;;;13.23;9.67;;;15.90;99.90;;;;;;5045731;28;20456;-75
2023/09/29 02:20:12;;;;;;;13.00;10.00;;;15.90;99.90;;;;;;5050130;28;20918;-75
2023/09/29 02:22:39;;;;;;;18.03;9.57;;;15.90;99.90;;;;;;5045350;28;20455;-75
2023/09/29 02:25:07;;;;;;;13.07;9.83;;;16.00;99.90;;;;;;5050074;28;20836;-76
2023/09/29 02:27:36;;;;;;;11.83;8.70;;;16.00;99.90;;;;;;5050601;28;20526;-75
2023/09/29 02:30:02;;;;;;;17.73;8.60;;;16.00;99.90;;;;;;5041151;28;20466;-75
2023/09/29 02:32:30;;;;;;;23.07;9.10;;;16.00;99.90;;;;;;5041518;28;20538;-74
2023/09/29 02:34:57;;;;;;;14.53;9.17;;;16.00;99.90;;;;;;5044304;28;20540;-77
2023/09/29 02:37:24;;;;;;;12.13;9.00;;;16.00;99.90;;;;;;5050299;28;20472;-75
2023/09/29 02:39:50;;;;;;;12.83;8.57;;;16.00;99.90;;;;;;5050382;28;20444;-75
2023/09/29 02:42:17;;;;;;;11.83;8.33;;;16.00;99.90;;;;;;5043885;28;20530;-75
2023/09/29 02:44:43;;;;;;;12.77;8.77;;;16.00;99.90;;;;;;5044966;28;20469;-75
2023/09/29 02:47:10;;;;;;;13.80;8.87;;;16.00;99.90;;;;;;5045854;28;20479;-75
2023/09/29 02:49:38;;;;;;;8.60;7.70;;;16.00;99.90;;;;;;5050046;28;20419;-75
2023/09/29 02:52:06;;;;;;;16.33;8.90;;;16.00;99.90;;;;;;5048909;28;20451;-75
2023/09/29 02:54:33;;;;;;;12.63;8.20;;;16.00;99.90;;;;;;5049811;28;20946;-75
2023/09/29 02:57:00;;;;;;;17.93;9.30;;;16.00;99.90;;;;;;5045566;28;20458;-74
2023/09/29 02:59:26;;;;;;;11.20;8.40;;;16.00;99.90;;;;;;5044568;28;20427;-75
2023/09/29 03:01:53;;;;;;;13.93;9.97;;;16.00;99.90;;;;;;5048745;28;20843;-75
2023/09/29 03:04:20;;;;;;;9.47;8.47;;;16.00;99.90;;;;;;5049431;28;20449;-75
2023/09/29 03:06:48;;;;;;;14.77;9.70;;;16.00;99.90;;;;;;5036011;28;20455;-74
2023/09/29 03:09:15;;;;;;;11.97;9.70;;;16.00;99.90;;;;;;5045610;28;20803;-75
2023/09/29 03:11:42;;;;;;;16.93;10.20;;;16.00;99.90;;;;;;5048483;28;20518;-75
2023/09/29 03:14:09;;;;;;;15.50;9.57;;;16.00;99.90;;;;;;5052124;28;20495;-75
2023/09/29 03:16:37;;;;;;;15.67;11.30;;;16.00;99.90;;;;;;5052952;28;20837;-75
2023/09/29 03:19:04;;;;;;;16.17;11.70;;;15.90;99.90;;;;;;5044582;28;20991;-75
2023/09/29 03:21:32;;;;;;;16.50;12.47;;;15.90;99.90;;;;;;5041305;28;20436;-75
2023/09/29 03:24:02;;;;;;;17.80;12.70;;;15.90;99.90;;;;;;5049033;28;20427;-75
2023/09/29 03:26:31;;;;;;;17.93;13.30;;;16.00;99.90;;;;;;5052625;28;20452;-75
2023/09/29 03:28:57;;;;;;;15.50;11.70;;;15.90;99.90;;;;;;5050565;28;20513;-75
2023/09/29 03:31:24;;;;;;;17.67;12.70;;;15.80;99.90;;;;;;5044567;28;20594;-75
2023/09/29 03:33:52;;;;;;;17.83;12.00;;;15.70;99.90;;;;;;5051702;28;20466;-75
2023/09/29 03:36:20;;;;;;;22.37;13.40;;;15.70;99.90;;;;;;5049788;28;21301;-75
2023/09/29 03:38:47;;;;;;;19.10;13.43;;;15.60;99.90;;;;;;5047625;28;20459;-74
2023/09/29 03:41:15;;;;;;;20.37;13.40;;;15.60;99.90;;;;;;5050896;28;20506;-74
2023/09/29 03:43:41;;;;;;;17.90;14.33;;;15.60;99.90;;;;;;5047165;28;20434;-77
2023/09/29 03:46:19;;;;;;;24.33;14.03;;;15.50;99.90;;;;;;5042897;28;20431;-74
2023/09/29 03:48:47;;;;;;;25.23;13.60;;;15.50;99.90;;;;;;5051530;28;20475;-74
2023/09/29 03:51:20;;;;;;;24.33;14.03;;;15.50;99.90;;;;;;5044535;28;20464;-77
2023/09/29 03:53:47;;;;;;;20.10;12.83;;;15.50;99.90;;;;;;5051472;28;20554;-74
2023/09/29 03:56:15;;;;;;;15.10;12.40;;;15.50;99.90;;;;;;5045189;28;20943;-74
2023/09/29 03:58:42;;;;;;;16.30;12.63;;;15.50;99.90;;;;;;5043791;28;20464;-74
2023/09/29 04:01:08;;;;;;;14.70;12.40;;;15.50;99.90;;;;;;5049837;28;20536;-74
2023/09/29 04:03:36;;;;;;;18.27;13.10;;;15.50;99.90;;;;;;5050642;28;20438;-74
2023/09/29 04:06:03;;;;;;;16.30;13.63;;;15.60;99.90;;;;;;5037174;28;20513;-74
2023/09/29 04:08:30;;;;;;;20.27;12.60;;;15.60;99.90;;;;;;5050982;28;20502;-74
2023/09/29 04:10:57;;;;;;;16.17;13.30;;;15.60;99.90;;;;;;5050360;28;20535;-74
2023/09/29 04:13:24;;;;;;;19.27;14.07;;;15.60;99.90;;;;;;5036386;28;20473;-74
2023/09/29 04:15:52;;;;;;;18.40;14.27;;;15.70;99.90;;;;;;5050659;28;20415;-76
2023/09/29 04:18:18;;;;;;;18.03;13.53;;;15.60;99.90;;;;;;5047552;28;20448;-74
2023/09/29 04:20:45;;;;;;;19.57;12.50;;;15.60;99.90;;;;;;5044926;28;20783;-74
2023/09/29 04:23:11;;;;;;;15.50;12.60;;;15.60;99.90;;;;;;5047368;28;20993;-74
2023/09/29 04:25:38;;;;;;;17.90;12.17;;;15.60;99.90;;;;;;5050170;28;20498;-74
2023/09/29 04:28:05;;;;;;;17.80;12.20;;;15.60;99.90;;;;;;5044572;28;20966;-76
2023/09/29 04:30:33;;;;;;;19.10;12.43;;;15.60;99.90;;;;;;5049255;28;20426;-74
2023/09/29 04:33:00;;;;;;;14.67;11.00;;;15.70;99.90;;;;;;5048085;28;20459;-74
2023/09/29 04:35:26;;;;;;;17.60;11.60;;;15.70;99.90;;;;;;5042253;28;20427;-76
2023/09/29 04:37:53;;;;;;;14.00;11.63;;;15.70;99.90;;;;;;5049480;28;20555;-76
2023/09/29 04:40:20;;;;;;;13.60;11.03;;;15.80;99.90;;;;;;5048459;28;20474;-74
2023/09/29 04:42:46;;;;;;;20.07;12.60;;;15.70;99.90;;;;;;5044538;28;20721;-77
2023/09/29 04:45:13;;;;;;;17.50;12.90;;;15.80;99.90;;;;;;5040461;28;20439;-74
2023/09/29 04:47:41;;;;;;;20.77;14.07;;;15.80;99.90;;;;;;5043710;28;20440;-74
2023/09/29 04:50:09;;;;;;;21.20;13.60;;;15.80;99.90;;;;;;5046287;28;20422;-74
2023/09/29 04:52:36;;;;;;;20.20;13.60;;;15.80;99.90;;;;;;5048856;28;20446;-74
2023/09/29 04:55:02;;;;;;;20.10;13.60;;;15.80;99.90;;;;;;5044892;28;20555;-76
2023/09/29 04:57:29;;;;;;;18.97;15.13;;;15.80;99.90;;;;;;5047619;28;20485;-76
2023/09/29 04:59:56;;;;;;;31.87;16.87;;;15.90;99.90;;;;;;5044684;28;20435;-76
2023/09/29 05:02:24;;;;;;;27.60;16.17;;;15.90;99.90;;;;;;5044395;28;20966;-76
2023/09/29 05:04:52;;;;;;;22.00;15.10;;;15.90;99.90;;;;;;5046852;28;20535;-76
2023/09/29 05:07:19;;;;;;;23.93;15.87;;;15.90;99.90;;;;;;5037476;28;20486;-76
2023/09/29 05:09:46;;;;;;;23.73;16.70;;;15.90;99.90;;;;;;5046886;28;20449;-76
2023/09/29 05:12:13;;;;;;;21.80;16.43;;;15.90;99.90;;;;;;5045202;28;20587;-76
2023/09/29 05:14:40;;;;;;;25.33;17.80;;;15.80;99.90;;;;;;5047809;28;20552;-76
2023/09/29 05:17:07;;;;;;;29.93;19.30;;;15.80;99.90;;;;;;5041569;28;20510;-75
2023/09/29 05:19:34;;;;;;;27.90;19.33;;;15.80;99.90;;;;;;5041715;28;20464;-76
2023/09/29 05:22:02;;;;;;;32.27;18.33;;;15.80;99.90;;;;;;5034567;28;20485;-76
2023/09/29 05:24:29;;;;;;;23.83;18.20;;;15.90;99.90;;;;;;5047042;28;20443;-75
2023/09/29 05:26:55;;;;;;;28.07;18.43;;;15.90;99.90;;;;;;5047009;28;20469;-75
2023/09/29 05:29:22;;;;;;;24.83;16.00;;;15.90;99.90;;;;;;5039695;28;20440;-75
2023/09/29 05:31:48;;;;;;;21.53;16.10;;;15.90;99.90;;;;;;5042624;28;20865;-75
2023/09/29 05:34:15;;;;;;;21.23;16.30;;;15.80;99.90;;;;;;5044991;28;20903;-75
2023/09/29 05:36:42;;;;;;;26.33;16.90;;;15.70;99.90;;;;;;5037891;28;20581;-75
2023/09/29 05:39:10;;;;;;;25.67;17.27;;;15.80;99.90;;;;;;5043548;28;20430;-75
2023/09/29 05:41:37;;;;;;;22.30;16.67;;;15.80;99.90;;;;;;5046305;28;21045;-75
2023/09/29 05:44:04;;;;;;;23.30;15.20;;;15.80;99.90;;;;;;5040056;28;20473;-75
2023/09/29 05:46:31;;;;;;;22.43;15.40;;;15.80;99.90;;;;;;5046464;28;20423;-76
2023/09/29 05:48:57;;;;;;;25.00;16.00;;;15.80;99.90;;;;;;5042268;28;20855;-75
2023/09/29 05:51:24;;;;;;;20.73;15.27;;;15.80;99.90;;;;;;5045053;28;20928;-75
2023/09/29 05:53:51;;;;;;;27.97;14.90;;;15.80;99.90;;;;;;5046432;28;20903;-75
2023/09/29 05:56:19;;;;;;;24.10;15.50;;;15.90;99.90;;;;;;5040336;28;20424;-75
2023/09/29 05:58:46;;;;;;;22.73;15.30;;;15.90;99.90;;;;;;5037874;28;20481;-74
2023/09/29 06:01:14;;;;;;;24.03;15.23;;;15.90;99.90;;;;;;5043606;28;20493;-73
2023/09/29 06:03:41;;;;;;;21.63;14.30;;;15.90;99.90;;;;;;5039842;28;20440;-73
2023/09/29 06:06:08;;;;;;;21.37;14.60;;;16.00;99.90;;;;;;5035809;28;20519;-73
2023/09/29 06:08:36;;;;;;;18.87;14.50;;;16.00;99.90;;;;;;5034921;28;20470;-73
2023/09/29 06:11:03;;;;;;;22.67;15.27;;;16.10;99.90;;;;;;5040378;28;20442;-73
2023/09/29 06:13:31;;;;;;;20.00;13.40;;;16.10;99.90;;;;;;5044650;28;20534;-73
2023/09/29 06:15:58;;;;;;;19.63;14.47;;;16.10;99.90;;;;;;5045212;28;20423;-73
2023/09/29 06:18:25;;;;;;;18.40;14.20;;;16.10;99.90;;;;;;5044227;28;20486;-73
2023/09/29 06:20:52;;;;;;;17.60;13.90;;;16.10;99.90;;;;;;5039843;28;20459;-73
2023/09/29 06:23:18;;;;;;;22.20;14.30;;;16.10;99.90;;;;;;5040485;28;21002;-73
2023/09/29 06:25:45;;;;;;;16.40;13.20;;;16.10;99.90;;;;;;5045371;28;20431;-73
2023/09/29 06:28:12;;;;;;;21.30;14.10;;;16.20;99.90;;;;;;5042971;28;20427;-73
2023/09/29 06:30:40;;;;;;;27.37;13.90;;;16.20;99.90;;;;;;5044297;28;20502;-74
2023/09/29 06:33:07;;;;;;;20.83;14.10;;;16.20;99.90;;;;;;5043199;28;20439;-73
2023/09/29 06:35:33;;;;;;;21.83;13.67;;;16.20;99.90;;;;;;5035345;28;20897;-74
2023/09/29 06:38:00;;;;;;;20.53;13.37;;;16.30;99.90;;;;;;5043764;28;20438;-74
2023/09/29 06:40:27;;;;;;;20.03;13.23;;;16.20;99.90;;;;;;5034651;28;20436;-72
2023/09/29 06:42:53;;;;;;;23.53;13.20;;;16.30;99.90;;;;;;5042351;28;20464;-72
2023/09/29 06:45:20;;;;;;;20.13;13.63;;;16.30;99.90;;;;;;5046448;28;20442;-71
2023/09/29 06:47:48;;;;;;;22.57;14.33;;;16.30;99.90;;;;;;5048698;28;21013;-71
2023/09/29 06:50:15;;;;;;;22.03;14.30;;;16.30;99.90;;;;;;5039390;28;21068;-71
2023/09/29 06:52:42;;;;;;;20.27;13.50;;;16.30;99.90;;;;;;5044057;28;20809;-71
2023/09/29 06:55:09;;;;;;;24.00;14.63;;;16.40;99.90;;;;;;5044865;28;20510;-71
2023/09/29 06:57:36;;;;;;;23.07;14.93;;;16.40;99.90;;;;;;5044650;28;20513;-71
2023/09/29 07:00:05;;;;;;;18.67;14.43;;;16.40;99.90;;;;;;5044387;28;20423;-71
2023/09/29 07:02:32;;;;;;;16.07;13.37;;;16.50;99.90;;;;;;5046776;28;20469;-71
2023/09/29 07:05:00;;;;;;;21.33;13.37;;;16.50;99.90;;;;;;5046584;28;20506;-71
2023/09/29 07:07:27;;;;;;;24.80;14.27;;;16.60;99.90;;;;;;5035838;28;20435;-71
2023/09/29 07:09:53;;;;;;;20.17;14.17;;;16.60;99.90;;;;;;5047492;28;20510;-71
2023/09/29 07:12:21;;;;;;;21.20;15.17;;;16.70;99.90;;;;;;5039927;28;20483;-71
2023/09/29 07:14:47;;;;;;;19.37;15.23;;;16.70;99.90;;;;;;5043550;28;21093;-70
2023/09/29 07:17:14;;;;;;;23.50;15.77;;;16.70;99.90;;;;;;5036286;28;20453;-70
2023/09/29 07:19:41;;;;;;;23.00;14.80;;;16.70;99.90;;;;;;5042083;28;20431;-71
2023/09/29 07:22:09;;;;;;;23.83;15.03;;;16.70;99.90;;;;;;5035265;28;20899;-71
2023/09/29 07:24:35;;;;;;;31.60;15.40;;;16.80;99.90;;;;;;5046516;28;20935;-71
2023/09/29 07:27:04;;;;;;;25.37;15.20;;;16.80;99.90;;;;;;5041304;28;20939;-71
2023/09/29 07:29:30;;;;;;;21.13;15.27;;;16.90;99.90;;;;;;5044581;28;20558;-71
2023/09/29 07:31:57;;;;;;;21.73;15.37;;;17.00;99.90;;;;;;5045885;28;20447;-71
2023/09/29 07:34:27;;;;;;;22.73;15.40;;;17.10;99.90;;;;;;5044384;28;21026;-71
2023/09/29 07:36:54;;;;;;;17.97;15.00;;;17.20;99.90;;;;;;5046746;28;20448;-70
2023/09/29 07:39:22;;;;;;;18.03;15.13;;;17.20;99.90;;;;;;5044018;28;20453;-71
2023/09/29 07:41:50;;;;;;;26.93;15.37;;;17.20;99.90;;;;;;5042392;28;20851;-71
2023/09/29 07:44:17;;;;;;;26.90;14.67;;;17.30;99.90;;;;;;5038623;28;20481;-71
2023/09/29 07:46:45;;;;;;;21.63;15.20;;;17.40;99.90;;;;;;5041765;28;20864;-71
2023/09/29 07:49:14;;;;;;;24.67;15.10;;;17.60;99.90;;;;;;5041821;28;21037;-71
2023/09/29 07:51:41;;;;;;;40.37;18.10;;;17.70;99.90;;;;;;5045108;28;20938;-71
2023/09/29 07:54:09;;;;;;;27.93;15.63;;;17.90;99.90;;;;;;5038438;28;20542;-71
2023/09/29 07:56:37;;;;;;;28.13;15.60;;;18.00;99.90;;;;;;5042391;28;20454;-71
2023/09/29 07:59:04;;;;;;;34.87;15.23;;;18.10;99.90;;;;;;5041761;28;21000;-71
2023/09/29 08:01:32;;;;;;;26.43;15.60;;;18.20;99.90;;;;;;5043165;28;20952;-71
2023/09/29 08:03:58;;;;;;;25.97;15.60;;;18.30;99.90;;;;;;5044445;28;20503;-71
2023/09/29 08:06:25;;;;;;;20.23;15.27;;;18.40;99.90;;;;;;5037056;28;20454;-72
2023/09/29 08:08:52;;;;;;;19.03;14.53;;;18.60;99.90;;;;;;5045144;28;20556;-72
2023/09/29 08:11:19;;;;;;;26.27;15.00;;;19.00;99.90;;;;;;5037725;28;20807;-72
2023/09/29 08:13:51;;;;;;;34.70;16.53;;;19.30;99.90;;;;;;5039265;28;20476;-71
2023/09/29 08:16:18;;;;;;;24.60;13.23;;;19.80;99.90;;;;;;5037830;28;20456;-71
2023/09/29 08:18:45;;;;;;;21.73;12.87;;;20.20;99.90;;;;;;5040119;28;20453;-72
2023/09/29 08:21:11;;;;;;;20.03;12.40;;;20.80;99.90;;;;;;5037372;28;20804;-72
2023/09/29 08:23:39;;;;;;;16.10;11.63;;;21.20;99.90;;;;;;5043251;28;20469;-71
2023/09/29 08:26:06;;;;;;;23.07;10.80;;;21.50;99.90;;;;;;5039810;28;20459;-70
2023/09/29 08:28:32;;;;;;;16.30;10.77;;;22.00;99.90;;;;;;5043001;28;20947;-69
2023/09/29 08:31:01;;;;;;;16.90;9.83;;;22.30;99.90;;;;;;5042563;28;20448;-69
2023/09/29 08:33:29;;;;;;;11.83;9.57;;;22.60;99.90;;;;;;5037621;28;20487;-69
2023/09/29 08:35:56;;;;;;;14.90;9.70;;;22.60;99.90;;;;;;5044564;28;20496;-69
2023/09/29 08:38:23;;;;;;;17.77;10.50;;;22.60;99.90;;;;;;5036995;28;20545;-70
2023/09/29 08:40:53;;;;;;;13.87;10.30;;;22.50;99.90;;;;;;5037111;28;21011;-70
2023/09/29 08:43:21;;;;;;;14.87;10.20;;;22.10;99.90;;;;;;5030017;28;20472;-69
2023/09/29 08:45:49;;;;;;;13.33;10.00;;;22.00;99.90;;;;;;5040089;28;20475;-69
2023/09/29 08:48:19;;;;;;;18.80;11.07;;;21.80;99.90;;;;;;5036522;28;20536;-70
2023/09/29 08:50:55;;;;;;;18.20;11.30;;;21.80;99.90;;;;;;5041347;28;20471;-70
2023/09/29 08:53:23;;;;;;;18.93;11.53;;;21.90;99.90;;;;;;5036672;28;20587;-70
2023/09/29 08:55:51;;;;;;;15.53;10.53;;;22.00;99.90;;;;;;5039963;28;20530;-69
2023/09/29 08:58:19;;;;;;;17.57;11.30;;;22.00;99.90;;;;;;5037201;28;20472;-69
2023/09/29 09:00:46;;;;;;;15.73;10.13;;;21.90;99.90;;;;;;5043408;28;20461;-69
2023/09/29 09:03:12;;;;;;;15.23;9.90;;;21.70;99.90;;;;;;5040289;28;20477;-69
2023/09/29 09:05:41;;;;;;;15.57;10.30;;;21.40;99.90;;;;;;5039778;28;20437;-69
2023/09/29 09:08:08;;;;;;;17.00;9.50;;;21.30;99.90;;;;;;5039598;28;21007;-69
2023/09/29 09:10:35;;;;;;;16.80;10.33;;;21.20;99.90;;;;;;5041453;28;20495;-70
2023/09/29 09:13:03;;;;;;;19.90;10.90;;;21.10;99.90;;;;;;5040941;28;20483;-69
2023/09/29 09:15:30;;;;;;;16.03;10.40;;;21.10;99.90;;;;;;5040150;28;21125;-69
2023/09/29 09:17:58;;;;;;;23.50;11.90;;;21.20;99.90;;;;;;5041989;28;20526;-69
2023/09/29 09:20:25;;;;;;;18.07;12.00;;;21.30;99.90;;;;;;5038998;28;20877;-69
2023/09/29 09:23:01;;;;;;;14.17;10.40;;;21.50;99.90;;;;;;5031534;28;20522;-69
2023/09/29 09:25:35;;;;;;;16.03;10.23;;;21.90;99.90;;;;;;5036583;28;20495;-69
2023/09/29 09:28:03;;;;;;;13.00;10.40;;;22.10;99.90;;;;;;5041095;28;20946;-69
2023/09/29 09:30:35;;;;;;;24.93;10.47;;;22.20;99.90;;;;;;5031770;28;20971;-69
2023/09/29 09:33:03;;;;;;;17.00;9.57;;;22.40;99.90;;;;;;5039859;28;20476;-69
2023/09/29 09:35:30;;;;;;;16.47;9.70;;;22.70;99.90;;;;;;5036281;28;20560;-69
2023/09/29 09:38:01;;;;;;;9.53;7.37;;;23.00;99.90;;;;;;5039723;28;20934;-69
2023/09/29 09:40:27;;;;;;;13.83;7.37;;;23.20;99.90;;;;;;5038871;28;20849;-69
2023/09/29 09:42:54;;;;;;;11.20;6.80;;;23.20;99.90;;;;;;5037335;28;20978;-69
2023/09/29 09:45:25;;;;;;;8.97;6.50;;;23.10;99.90;;;;;;5038033;28;20459;-69
2023/09/29 09:47:57;;;;;;;15.83;7.57;;;23.10;99.90;;;;;;5038585;28;20871;-69
2023/09/29 09:50:27;;;;;;;12.20;6.80;;;23.00;99.90;;;;;;5037865;28;20532;-69
2023/09/29 09:52:55;;;;;;;10.07;6.57;;;23.00;99.90;;;;;;5037916;28;20472;-69
2023/09/29 09:55:33;;;;;;;14.00;6.90;;;23.00;99.90;;;;;;5038043;28;21001;-69
2023/09/29 09:58:06;;;;;;;10.97;6.70;;;23.00;99.90;;;;;;5037601;28;20448;-69
2023/09/29 10:00:33;;;;;;;11.40;6.33;;;23.00;99.90;;;;;;5038549;28;20456;-69
2023/09/29 10:03:03;;;;;;;11.97;7.40;;;23.00;99.90;;;;;;5039950;28;20503;-69
2023/09/29 10:05:31;;;;;;;12.40;6.87;;;23.00;99.90;;;;;;5037541;28;20464;-68
2023/09/29 10:08:05;;;;;;;11.50;7.97;;;22.90;99.90;;;;;;5037993;28;20532;-69
2023/09/29 10:10:34;;;;;;;17.30;7.37;;;22.90;99.90;;;;;;5037748;28;20560;-69
2023/09/29 10:13:03;;;;;;;7.20;6.20;;;23.20;99.90;;;;;;5036549;28;20525;-69
2023/09/29 10:15:30;;;;;;;10.43;6.87;;;23.40;99.90;;;;;;5037529;28;20865;-69
2023/09/29 10:17:58;;;;;;;9.00;6.47;;;23.50;99.90;;;;;;5044925;28;20456;-69
2023/09/29 10:20:26;;;;;;;12.27;7.10;;;23.50;99.90;;;;;;5045129;28;20453;-69
2023/09/29 10:23:06;;;;;;;9.90;6.73;;;23.60;99.90;;;;;;5043899;28;20819;-69
2023/09/29 10:25:36;;;;;;;10.33;6.80;;;23.60;99.90;;;;;;5043842;28;20444;-68
2023/09/29 10:28:06;;;;;;;13.67;7.63;;;23.60;99.90;;;;;;5045062;28;21009;-68
2023/09/29 10:30:34;;;;;;;19.60;8.10;;;23.50;99.90;;;;;;5042647;28;20527;-69
2023/09/29 10:33:06;;;;;;;14.73;7.50;;;23.40;99.90;;;;;;5044922;28;20563;-69
2023/09/29 10:35:35;;;;;;;11.77;8.20;;;23.30;99.90;;;;;;5041628;28;20500;-69
2023/09/29 10:38:11;;;;;;;18.73;8.73;;;23.20;99.90;;;;;;5045049;28;20539;-69
2023/09/29 10:40:41;;;;;;;11.70;8.17;;;23.20;99.90;;;;;;5043842;28;20828;-68
2023/09/29 10:43:08;;;;;;;14.50;8.77;;;23.10;99.90;;;;;;5040547;28;21037;-69
2023/09/29 10:45:37;;;;;;;22.97;8.63;;;23.10;99.90;;;;;;5042807;28;20445;-69
2023/09/29 10:48:06;;;;;;;13.30;8.27;;;23.00;99.90;;;;;;5043837;28;20499;-69
2023/09/29 10:50:39;;;;;;;14.87;9.13;;;23.00;99.90;;;;;;5039668;28;20536;-69
2023/09/29 10:53:07;;;;;;;18.13;9.20;;;23.00;99.90;;;;;;5038280;28;20473;-68
2023/09/29 10:55:36;;;;;;;12.53;8.13;;;23.10;99.90;;;;;;5040392;28;20484;-68
2023/09/29 10:58:04;;;;;;;11.23;8.10;;;23.10;99.90;;;;;;5044685;28;20494;-68
2023/09/29 11:00:31;;;;;;;12.13;7.07;;;23.20;99.90;;;;;;5042211;28;20454;-68
2023/09/29 11:02:58;;;;;;;11.40;7.73;;;23.30;99.90;;;;;;5039546;28;21031;-68
2023/09/29 11:05:25;;;;;;;11.57;8.47;;;23.50;99.90;;;;;;5042852;28;20467;-69
2023/09/29 11:07:52;;;;;;;8.70;6.80;;;23.80;99.90;;;;;;5042263;28;20488;-69
2023/09/29 11:10:20;;;;;;;6.90;6.10;;;23.90;99.90;;;;;;5037621;28;20453;-69
2023/09/29 11:12:47;;;;;;;8.23;5.90;;;24.10;99.90;;;;;;5043517;28;20978;-69
2023/09/29 11:15:17;;;;;;;11.53;6.20;;;24.30;99.90;;;;;;5042365;28;20491;-69
2023/09/29 11:17:48;;;;;;;10.00;5.90;;;24.40;99.90;;;;;;5043444;28;20465;-69
2023/09/29 11:20:25;;;;;;;11.60;5.57;;;24.60;99.90;;;;;;5042311;28;20445;-69
2023/09/29 11:23:00;;;;;;;10.20;6.00;;;24.70;99.90;;;;;;5038769;28;20545;-69
2023/09/29 11:25:27;;;;;;;8.13;5.97;;;24.70;99.90;;;;;;5037309;28;20437;-68
2023/09/29 11:27:54;;;;;;;7.10;5.50;;;24.80;99.90;;;;;;5043270;28;20445;-69
2023/09/29 11:30:24;;;;;;;16.47;6.37;;;24.70;99.90;;;;;;5037064;28;20456;-69
2023/09/29 11:32:51;;;;;;;8.00;6.47;;;24.60;99.90;;;;;;5040816;28;20513;-69
2023/09/29 11:35:18;;;;;;;10.00;6.23;;;24.60;99.90;;;;;;5037382;28;20944;-69
2023/09/29 11:37:45;;;;;;;8.20;5.70;;;24.60;99.90;;;;;;5040046;28;20860;-68
2023/09/29 11:40:12;;;;;;;9.60;5.70;;;24.80;99.90;;;;;;5039022;28;20444;-68
2023/09/29 11:42:39;;;;;;;9.50;6.30;;;25.10;99.90;;;;;;5038213;28;20473;-69
2023/09/29 11:45:08;;;;;;;8.63;5.43;;;25.40;99.90;;;;;;5038143;28;20506;-69
2023/09/29 11:47:38;;;;;;;9.30;5.97;;;25.70;99.90;;;;;;5038316;28;20458;-69
2023/09/29 11:50:08;;;;;;;11.77;6.07;;;25.90;99.90;;;;;;5037646;28;20444;-68
2023/09/29 11:52:34;;;;;;;9.37;5.67;;;25.80;99.90;;;;;;5037503;28;20477;-69
2023/09/29 11:55:03;;;;;;;7.97;5.97;;;26.00;99.90;;;;;;5037827;28;20459;-68
2023/09/29 11:57:30;;;;;;;9.53;6.17;;;26.10;99.90;;;;;;5037865;28;20457;-69
2023/09/29 11:59:57;;;;;;;8.67;5.60;;;26.30;99.90;;;;;;5039570;28;20514;-68
2023/09/29 12:02:23;;;;;;;8.37;5.63;;;26.40;99.90;;;;;;5037120;28;20875;-69
2023/09/29 12:04:51;;;;;;;11.20;6.00;;;26.50;99.90;;;;;;5038988;28;20445;-69
2023/09/29 12:07:18;;;;;;;9.10;6.20;;;26.50;99.90;;;;;;5034531;28;20469;-69
2023/09/29 12:09:45;;;;;;;15.93;5.53;;;26.40;99.90;;;;;;5036200;28;20531;-69
2023/09/29 12:12:12;;;;;;;9.90;5.50;;;26.50;99.90;;;;;;5037241;28;20857;-69
2023/09/29 12:14:39;;;;;;;7.87;5.10;;;26.60;99.90;;;;;;5036869;28;20454;-68
2023/09/29 12:17:06;;;;;;;7.33;5.70;;;26.50;99.90;;;;;;5032588;28;21005;-70
2023/09/29 12:19:32;;;;;;;9.60;5.30;;;26.40;99.90;;;;;;5036718;28;20514;-68
2023/09/29 12:22:00;;;;;;;7.73;5.17;;;26.60;99.90;;;;;;5036547;28;20480;-68
2023/09/29 12:24:27;;;;;;;7.23;4.50;;;26.90;99.90;;;;;;5036675;28;20797;-68
2023/09/29 12:26:53;;;;;;;10.63;4.50;;;26.90;99.90;;;;;;5038219;28;20446;-68
2023/09/29 12:29:21;;;;;;;6.73;5.37;;;26.90;99.90;;;;;;5035296;28;20450;-68
2023/09/29 12:31:49;;;;;;;8.73;5.00;;;26.70;99.90;;;;;;5037123;28;20477;-68
2023/09/29 12:34:17;;;;;;;22.87;5.30;;;26.30;99.90;;;;;;5036326;28;20489;-71
2023/09/29 12:36:44;;;;;;;10.23;4.63;;;26.20;99.90;;;;;;5036832;28;20575;-68